sensor_id;sensor_type;location;lat;lon;timestamp;pressure;altitude;pressure_sealevel;temperature;humidity
72409;BME280;60402;48.082;11.628;2023-07-13T00:00:03;95319.91;;;18.59;100.00
72409;BME280;60402;48.082;11.628;2023-07-13T00:02:54;95312.97;;;18.66;100.00
72409;BME280;60402;48.082;11.628;2023-07-13T00:05:40;95298.53;;;18.55;100.00
72409;BME280;60402;48.082;11.628;2023-07-13T00:08:30;95304.09;;;18.64;100.00
72409;BME280;60402;48.082;11.628;2023-07-13T00:11:18;95303.75;;;18.77;100.00
72409;BME280;60402;48.082;11.628;2023-07-13T00:14:03;95297.34;;;18.67;100.00
72409;BME280;60402;48.082;11.628;2023-07-13T00:16:49;95290.78;;;18.81;100.00
72409;BME280;60402;48.082;11.628;2023-07-13T00:19:35;95288.59;;;18.71;100.00
72409;BME280;60402;48.082;11.628;2023-07-13T00:22:22;95298.75;;;18.72;100.00
72409;BME280;60402;48.082;11.628;2023-07-13T00:25:12;95309.97;;;18.75;100.00
72409;BME280;60402;48.082;11.628;2023-07-13T00:27:58;95311.06;;;18.78;100.00
72409;BME280;60402;48.082;11.628;2023-07-13T00:30:44;95306.16;;;18.84;100.00
72409;BME280;60402;48.082;11.628;2023-07-13T00:33:30;95315.53;;;18.84;100.00
72409;BME280;60402;48.082;11.628;2023-07-13T00:36:15;95321.78;;;18.83;100.00
72409;BME280;60402;48.082;11.628;2023-07-13T00:39:01;95331.72;;;18.87;100.00
72409;BME280;60402;48.082;11.628;2023-07-13T00:41:49;95318.91;;;18.83;100.00
72409;BME280;60402;48.082;11.628;2023-07-13T00:44:34;95319.13;;;18.79;100.00
72409;BME280;60402;48.082;11.628;2023-07-13T00:47:20;95331.22;;;18.89;100.00
72409;BME280;60402;48.082;11.628;2023-07-13T00:50:08;95320.53;;;18.89;100.00
72409;BME280;60402;48.082;11.628;2023-07-13T00:52:55;95314.13;;;18.74;100.00
72409;BME280;60402;48.082;11.628;2023-07-13T00:55:43;95325.44;;;18.83;100.00
72409;BME280;60402;48.082;11.628;2023-07-13T00:58:29;95320.84;;;18.71;100.00
72409;BME280;60402;48.082;11.628;2023-07-13T01:01:15;95323.78;;;18.77;100.00
72409;BME280;60402;48.082;11.628;2023-07-13T01:04:01;95312.25;;;18.71;100.00
72409;BME280;60402;48.082;11.628;2023-07-13T01:06:47;95315.75;;;18.81;100.00
72409;BME280;60402;48.082;11.628;2023-07-13T01:09:33;95306.38;;;18.80;100.00
72409;BME280;60402;48.082;11.628;2023-07-13T01:12:19;95286.69;;;18.68;100.00
72409;BME280;60402;48.082;11.628;2023-07-13T01:15:05;95279.34;;;18.61;100.00
72409;BME280;60402;48.082;11.628;2023-07-13T01:17:51;95279.78;;;18.54;100.00
72409;BME280;60402;48.082;11.628;2023-07-13T01:20:37;95290.84;;;18.67;100.00
72409;BME280;60402;48.082;11.628;2023-07-13T01:23:24;95280.91;;;18.62;100.00
72409;BME280;60402;48.082;11.628;2023-07-13T01:26:10;95262.91;;;18.56;100.00
72409;BME280;60402;48.082;11.628;2023-07-13T01:28:57;95250.38;;;18.53;100.00
72409;BME280;60402;48.082;11.628;2023-07-13T01:31:42;95258.69;;;18.51;100.00
72409;BME280;60402;48.082;11.628;2023-07-13T01:34:29;95255.66;;;18.60;100.00
72409;BME280;60402;48.082;11.628;2023-07-13T01:37:15;95260.03;;;18.56;100.00
72409;BME280;60402;48.082;11.628;2023-07-13T01:40:03;95243.13;;;18.58;100.00
72409;BME280;60402;48.082;11.628;2023-07-13T01:42:49;95266.97;;;18.70;100.00
72409;BME280;60402;48.082;11.628;2023-07-13T01:45:35;95259.31;;;18.61;100.00
72409;BME280;60402;48.082;11.628;2023-07-13T01:48:20;95264.19;;;18.55;100.00
72409;BME280;60402;48.082;11.628;2023-07-13T01:51:06;95278.78;;;18.57;100.00
72409;BME280;60402;48.082;11.628;2023-07-13T01:53:52;95270.84;;;18.46;100.00
72409;BME280;60402;48.082;11.628;2023-07-13T01:56:37;95264.13;;;18.29;100.00
72409;BME280;60402;48.082;11.628;2023-07-13T01:59:24;95279.31;;;18.35;100.00
72409;BME280;60402;48.082;11.628;2023-07-13T02:02:09;95296.03;;;18.42;100.00
72409;BME280;60402;48.082;11.628;2023-07-13T02:04:55;95306.38;;;18.39;100.00
72409;BME280;60402;48.082;11.628;2023-07-13T02:07:41;95298.66;;;18.25;100.00
72409;BME280;60402;48.082;11.628;2023-07-13T02:10:27;95297.25;;;18.35;100.00
72409;BME280;60402;48.082;11.628;2023-07-13T02:13:13;95304.47;;;18.51;100.00
72409;BME280;60402;48.082;11.628;2023-07-13T02:15:59;95308.25;;;18.43;100.00
72409;BME280;60402;48.082;11.628;2023-07-13T02:18:45;95303.69;;;18.51;100.00
72409;BME280;60402;48.082;11.628;2023-07-13T02:21:30;95302.16;;;18.55;100.00
72409;BME280;60402;48.082;11.628;2023-07-13T02:24:16;95315.31;;;18.68;100.00
72409;BME280;60402;48.082;11.628;2023-07-13T02:27:04;95294.09;;;18.54;100.00
72409;BME280;60402;48.082;11.628;2023-07-13T02:29:50;95312.19;;;18.45;100.00
72409;BME280;60402;48.082;11.628;2023-07-13T02:32:39;95306.88;;;18.38;100.00
72409;BME280;60402;48.082;11.628;2023-07-13T02:35:24;95314.75;;;18.43;100.00
72409;BME280;60402;48.082;11.628;2023-07-13T02:38:10;95315.84;;;18.46;100.00
72409;BME280;60402;48.082;11.628;2023-07-13T02:40:56;95325.06;;;18.35;100.00
72409;BME280;60402;48.082;11.628;2023-07-13T02:43:41;95328.47;;;18.39;100.00
72409;BME280;60402;48.082;11.628;2023-07-13T02:46:27;95336.44;;;18.50;100.00
72409;BME280;60402;48.082;11.628;2023-07-13T02:49:13;95333.84;;;18.52;100.00
72409;BME280;60402;48.082;11.628;2023-07-13T02:51:58;95343.59;;;18.60;100.00
72409;BME280;60402;48.082;11.628;2023-07-13T02:54:45;95339.38;;;18.55;100.00
72409;BME280;60402;48.082;11.628;2023-07-13T02:57:30;95347.38;;;18.51;100.00
72409;BME280;60402;48.082;11.628;2023-07-13T03:00:18;95360.53;;;18.43;100.00
72409;BME280;60402;48.082;11.628;2023-07-13T03:03:04;95344.88;;;18.38;100.00
72409;BME280;60402;48.082;11.628;2023-07-13T03:05:58;95344.94;;;18.44;100.00
72409;BME280;60402;48.082;11.628;2023-07-13T03:08:45;95348.81;;;18.41;100.00
72409;BME280;60402;48.082;11.628;2023-07-13T03:11:31;95354.81;;;18.23;100.00
72409;BME280;60402;48.082;11.628;2023-07-13T03:14:16;95366.28;;;18.08;100.00
72409;BME280;60402;48.082;11.628;2023-07-13T03:17:02;95366.16;;;18.17;100.00
72409;BME280;60402;48.082;11.628;2023-07-13T03:19:48;95363.50;;;18.13;100.00
72409;BME280;60402;48.082;11.628;2023-07-13T03:22:35;95362.72;;;18.13;100.00
72409;BME280;60402;48.082;11.628;2023-07-13T03:25:20;95374.50;;;18.21;100.00
72409;BME280;60402;48.082;11.628;2023-07-13T03:28:06;95371.44;;;18.24;100.00
72409;BME280;60402;48.082;11.628;2023-07-13T03:31:03;95376.38;;;18.24;100.00
72409;BME280;60402;48.082;11.628;2023-07-13T03:33:49;95374.91;;;18.28;100.00
72409;BME280;60402;48.082;11.628;2023-07-13T03:36:34;95364.00;;;18.12;100.00
72409;BME280;60402;48.082;11.628;2023-07-13T03:39:20;95386.19;;;18.17;100.00
72409;BME280;60402;48.082;11.628;2023-07-13T03:42:06;95387.75;;;18.18;100.00
72409;BME280;60402;48.082;11.628;2023-07-13T03:44:52;95400.06;;;18.24;100.00
72409;BME280;60402;48.082;11.628;2023-07-13T03:47:37;95391.44;;;18.04;100.00
72409;BME280;60402;48.082;11.628;2023-07-13T03:50:23;95399.69;;;18.17;100.00
72409;BME280;60402;48.082;11.628;2023-07-13T03:53:09;95382.44;;;18.11;100.00
72409;BME280;60402;48.082;11.628;2023-07-13T03:55:54;95389.09;;;18.02;100.00
72409;BME280;60402;48.082;11.628;2023-07-13T03:58:42;95396.97;;;18.07;100.00
72409;BME280;60402;48.082;11.628;2023-07-13T04:01:27;95389.16;;;18.08;100.00
72409;BME280;60402;48.082;11.628;2023-07-13T04:04:13;95400.22;;;18.00;100.00
72409;BME280;60402;48.082;11.628;2023-07-13T04:06:59;95388.69;;;17.95;100.00
72409;BME280;60402;48.082;11.628;2023-07-13T04:09:44;95388.00;;;18.00;100.00
72409;BME280;60402;48.082;11.628;2023-07-13T04:12:30;95394.28;;;18.04;100.00
72409;BME280;60402;48.082;11.628;2023-07-13T04:15:16;95393.63;;;17.94;100.00
72409;BME280;60402;48.082;11.628;2023-07-13T04:18:01;95393.34;;;17.77;100.00
72409;BME280;60402;48.082;11.628;2023-07-13T04:20:49;95396.41;;;17.74;100.00
72409;BME280;60402;48.082;11.628;2023-07-13T04:23:37;95397.28;;;17.80;100.00
72409;BME280;60402;48.082;11.628;2023-07-13T04:26:23;95394.50;;;17.71;100.00
72409;BME280;60402;48.082;11.628;2023-07-13T04:29:12;95395.13;;;17.75;100.00
72409;BME280;60402;48.082;11.628;2023-07-13T04:31:57;95400.94;;;17.66;100.00
72409;BME280;60402;48.082;11.628;2023-07-13T04:34:43;95402.22;;;17.65;100.00
72409;BME280;60402;48.082;11.628;2023-07-13T04:37:29;95401.41;;;17.64;100.00
72409;BME280;60402;48.082;11.628;2023-07-13T04:40:16;95399.66;;;17.52;100.00
72409;BME280;60402;48.082;11.628;2023-07-13T04:43:02;95403.28;;;17.52;100.00
72409;BME280;60402;48.082;11.628;2023-07-13T04:45:47;95407.72;;;17.68;100.00
72409;BME280;60402;48.082;11.628;2023-07-13T04:48:33;95418.09;;;17.80;100.00
72409;BME280;60402;48.082;11.628;2023-07-13T04:51:19;95414.91;;;17.78;100.00
72409;BME280;60402;48.082;11.628;2023-07-13T04:54:05;95414.22;;;17.69;100.00
72409;BME280;60402;48.082;11.628;2023-07-13T04:56:53;95419.28;;;17.88;100.00
72409;BME280;60402;48.082;11.628;2023-07-13T04:59:38;95419.38;;;17.79;100.00
72409;BME280;60402;48.082;11.628;2023-07-13T05:02:24;95424.75;;;17.92;100.00
72409;BME280;60402;48.082;11.628;2023-07-13T05:05:10;95428.53;;;17.83;100.00
72409;BME280;60402;48.082;11.628;2023-07-13T05:07:55;95438.94;;;17.72;100.00
72409;BME280;60402;48.082;11.628;2023-07-13T05:10:41;95433.72;;;17.70;100.00
72409;BME280;60402;48.082;11.628;2023-07-13T05:13:27;95431.50;;;17.74;100.00
72409;BME280;60402;48.082;11.628;2023-07-13T05:16:12;95419.28;;;17.74;100.00
72409;BME280;60402;48.082;11.628;2023-07-13T05:18:58;95432.63;;;17.97;100.00
72409;BME280;60402;48.082;11.628;2023-07-13T05:21:44;95424.47;;;17.90;100.00
72409;BME280;60402;48.082;11.628;2023-07-13T05:24:29;95419.16;;;17.98;100.00
72409;BME280;60402;48.082;11.628;2023-07-13T05:27:17;95426.72;;;18.01;100.00
72409;BME280;60402;48.082;11.628;2023-07-13T05:30:03;95436.78;;;17.96;100.00
72409;BME280;60402;48.082;11.628;2023-07-13T05:32:49;95433.94;;;17.96;100.00
72409;BME280;60402;48.082;11.628;2023-07-13T05:35:34;95436.41;;;18.03;100.00
72409;BME280;60402;48.082;11.628;2023-07-13T05:38:20;95443.56;;;18.13;100.00
72409;BME280;60402;48.082;11.628;2023-07-13T05:41:08;95449.38;;;18.19;100.00
72409;BME280;60402;48.082;11.628;2023-07-13T05:43:54;95445.72;;;18.19;100.00
72409;BME280;60402;48.082;11.628;2023-07-13T05:46:40;95451.19;;;18.17;100.00
72409;BME280;60402;48.082;11.628;2023-07-13T05:49:26;95429.56;;;18.16;100.00
72409;BME280;60402;48.082;11.628;2023-07-13T05:52:11;95427.72;;;18.12;100.00
72409;BME280;60402;48.082;11.628;2023-07-13T05:54:57;95429.44;;;18.25;100.00
72409;BME280;60402;48.082;11.628;2023-07-13T05:57:42;95447.84;;;18.38;100.00
72409;BME280;60402;48.082;11.628;2023-07-13T06:00:28;95428.97;;;18.26;100.00
72409;BME280;60402;48.082;11.628;2023-07-13T06:03:14;95451.50;;;18.39;100.00
72409;BME280;60402;48.082;11.628;2023-07-13T06:06:00;95452.25;;;18.54;100.00
72409;BME280;60402;48.082;11.628;2023-07-13T06:08:46;95445.59;;;18.63;100.00
72409;BME280;60402;48.082;11.628;2023-07-13T06:11:32;95448.19;;;18.61;100.00
72409;BME280;60402;48.082;11.628;2023-07-13T06:14:17;95457.63;;;18.67;100.00
72409;BME280;60402;48.082;11.628;2023-07-13T06:17:03;95462.09;;;18.68;100.00
72409;BME280;60402;48.082;11.628;2023-07-13T06:19:49;95467.41;;;18.75;100.00
72409;BME280;60402;48.082;11.628;2023-07-13T06:22:35;95469.63;;;18.86;100.00
72409;BME280;60402;48.082;11.628;2023-07-13T06:25:20;95470.50;;;18.92;100.00
72409;BME280;60402;48.082;11.628;2023-07-13T06:28:06;95467.13;;;18.94;100.00
72409;BME280;60402;48.082;11.628;2023-07-13T06:30:52;95482.69;;;19.07;100.00
72409;BME280;60402;48.082;11.628;2023-07-13T06:33:38;95493.03;;;19.05;100.00
72409;BME280;60402;48.082;11.628;2023-07-13T06:36:23;95480.47;;;18.97;100.00
72409;BME280;60402;48.082;11.628;2023-07-13T06:39:09;95499.16;;;19.12;100.00
72409;BME280;60402;48.082;11.628;2023-07-13T06:41:55;95502.16;;;19.03;100.00
72409;BME280;60402;48.082;11.628;2023-07-13T06:44:40;95508.81;;;19.15;100.00
72409;BME280;60402;48.082;11.628;2023-07-13T06:47:26;95487.69;;;19.12;100.00
72409;BME280;60402;48.082;11.628;2023-07-13T06:50:12;95497.38;;;19.15;100.00
72409;BME280;60402;48.082;11.628;2023-07-13T06:52:57;95480.97;;;19.15;100.00
72409;BME280;60402;48.082;11.628;2023-07-13T06:55:45;95493.13;;;19.31;100.00
72409;BME280;60402;48.082;11.628;2023-07-13T06:58:34;95504.72;;;19.42;100.00
72409;BME280;60402;48.082;11.628;2023-07-13T07:01:19;95503.16;;;19.41;100.00
72409;BME280;60402;48.082;11.628;2023-07-13T07:04:05;95509.00;;;19.52;100.00
72409;BME280;60402;48.082;11.628;2023-07-13T07:06:51;95506.72;;;19.36;100.00
72409;BME280;60402;48.082;11.628;2023-07-13T07:09:36;95506.00;;;19.41;100.00
72409;BME280;60402;48.082;11.628;2023-07-13T07:12:22;95502.22;;;19.50;100.00
72409;BME280;60402;48.082;11.628;2023-07-13T07:15:08;95501.69;;;19.51;100.00
72409;BME280;60402;48.082;11.628;2023-07-13T07:17:54;95501.09;;;19.62;100.00
72409;BME280;60402;48.082;11.628;2023-07-13T07:20:39;95498.88;;;19.57;100.00
72409;BME280;60402;48.082;11.628;2023-07-13T07:23:25;95494.63;;;19.67;100.00
72409;BME280;60402;48.082;11.628;2023-07-13T07:26:11;95511.38;;;19.74;100.00
72409;BME280;60402;48.082;11.628;2023-07-13T07:28:57;95505.28;;;19.66;100.00
72409;BME280;60402;48.082;11.628;2023-07-13T07:31:42;95502.81;;;19.80;100.00
72409;BME280;60402;48.082;11.628;2023-07-13T07:34:28;95515.81;;;19.75;100.00
72409;BME280;60402;48.082;11.628;2023-07-13T07:37:14;95528.22;;;19.66;100.00
72409;BME280;60402;48.082;11.628;2023-07-13T07:40:00;95521.16;;;19.62;100.00
72409;BME280;60402;48.082;11.628;2023-07-13T07:42:46;95527.31;;;19.34;100.00
72409;BME280;60402;48.082;11.628;2023-07-13T07:45:31;95528.28;;;19.31;100.00
72409;BME280;60402;48.082;11.628;2023-07-13T07:48:17;95533.66;;;19.24;100.00
72409;BME280;60402;48.082;11.628;2023-07-13T07:51:03;95544.91;;;19.27;100.00
72409;BME280;60402;48.082;11.628;2023-07-13T07:53:48;95557.44;;;19.50;100.00
72409;BME280;60402;48.082;11.628;2023-07-13T07:56:34;95549.84;;;19.27;100.00
72409;BME280;60402;48.082;11.628;2023-07-13T07:59:20;95548.63;;;19.13;100.00
72409;BME280;60402;48.082;11.628;2023-07-13T08:02:06;95552.19;;;19.08;100.00
72409;BME280;60402;48.082;11.628;2023-07-13T08:04:52;95561.59;;;19.29;99.63
72409;BME280;60402;48.082;11.628;2023-07-13T08:07:38;95552.34;;;19.19;99.08
72409;BME280;60402;48.082;11.628;2023-07-13T08:10:24;95568.53;;;19.22;100.00
72409;BME280;60402;48.082;11.628;2023-07-13T08:13:10;95566.00;;;19.09;100.00
72409;BME280;60402;48.082;11.628;2023-07-13T08:15:55;95578.19;;;19.04;100.00
72409;BME280;60402;48.082;11.628;2023-07-13T08:18:41;95574.38;;;18.93;100.00
72409;BME280;60402;48.082;11.628;2023-07-13T08:21:27;95570.03;;;18.97;99.86
72409;BME280;60402;48.082;11.628;2023-07-13T08:24:13;95564.22;;;18.62;99.84
72409;BME280;60402;48.082;11.628;2023-07-13T08:26:59;95574.84;;;18.91;100.00
72409;BME280;60402;48.082;11.628;2023-07-13T08:29:45;95565.53;;;18.61;100.00
72409;BME280;60402;48.082;11.628;2023-07-13T08:32:32;95585.16;;;18.83;100.00
72409;BME280;60402;48.082;11.628;2023-07-13T08:35:18;95585.75;;;18.72;100.00
72409;BME280;60402;48.082;11.628;2023-07-13T08:38:03;95583.69;;;18.87;100.00
72409;BME280;60402;48.082;11.628;2023-07-13T08:40:52;95582.00;;;18.81;100.00
72409;BME280;60402;48.082;11.628;2023-07-13T08:43:39;95583.88;;;18.84;100.00
72409;BME280;60402;48.082;11.628;2023-07-13T08:46:38;95591.75;;;18.89;100.00
72409;BME280;60402;48.082;11.628;2023-07-13T08:49:26;95592.47;;;18.84;100.00
72409;BME280;60402;48.082;11.628;2023-07-13T08:58:21;95601.06;;;18.54;100.00
72409;BME280;60402;48.082;11.628;2023-07-13T09:04:43;95616.16;;;18.84;100.00
72409;BME280;60402;48.082;11.628;2023-07-13T09:17:35;95589.34;;;19.02;99.26
72409;BME280;60402;48.082;11.628;2023-07-13T09:20:31;95597.16;;;19.02;99.68
72409;BME280;60402;48.082;11.628;2023-07-13T09:23:23;95592.22;;;19.02;100.00
72409;BME280;60402;48.082;11.628;2023-07-13T09:29:29;95599.66;;;19.14;99.62
72409;BME280;60402;48.082;11.628;2023-07-13T09:32:18;95596.31;;;19.16;100.00
72409;BME280;60402;48.082;11.628;2023-07-13T09:35:10;95595.63;;;19.21;100.00
72409;BME280;60402;48.082;11.628;2023-07-13T09:44:10;95605.72;;;19.37;97.29
72409;BME280;60402;48.082;11.628;2023-07-13T09:46:57;95615.28;;;19.49;96.25
72409;BME280;60402;48.082;11.628;2023-07-13T09:49:43;95597.16;;;19.57;95.52
72409;BME280;60402;48.082;11.628;2023-07-13T09:52:47;95603.56;;;19.52;93.20
72409;BME280;60402;48.082;11.628;2023-07-13T09:55:36;95597.06;;;19.52;92.12
72409;BME280;60402;48.082;11.628;2023-07-13T09:58:25;95609.28;;;19.67;89.60
72409;BME280;60402;48.082;11.628;2023-07-13T10:01:15;95601.91;;;19.60;90.61
72409;BME280;60402;48.082;11.628;2023-07-13T10:04:01;95598.41;;;19.36;92.65
72409;BME280;60402;48.082;11.628;2023-07-13T10:06:47;95593.78;;;19.59;91.67
72409;BME280;60402;48.082;11.628;2023-07-13T10:09:33;95605.53;;;19.61;94.30
72409;BME280;60402;48.082;11.628;2023-07-13T10:12:18;95613.72;;;19.88;93.27
72409;BME280;60402;48.082;11.628;2023-07-13T10:15:09;95623.38;;;20.11;92.05
72409;BME280;60402;48.082;11.628;2023-07-13T10:17:59;95624.56;;;20.25;91.05
72409;BME280;60402;48.082;11.628;2023-07-13T10:20:46;95620.25;;;20.61;87.58
72409;BME280;60402;48.082;11.628;2023-07-13T10:23:31;95619.91;;;20.80;84.50
72409;BME280;60402;48.082;11.628;2023-07-13T10:26:22;95620.91;;;21.08;83.72
72409;BME280;60402;48.082;11.628;2023-07-13T10:29:12;95628.44;;;21.37;79.43
72409;BME280;60402;48.082;11.628;2023-07-13T10:31:59;95624.44;;;21.72;80.98
72409;BME280;60402;48.082;11.628;2023-07-13T10:34:47;95610.69;;;21.93;78.99
72409;BME280;60402;48.082;11.628;2023-07-13T10:37:43;95621.16;;;22.02;76.56
72409;BME280;60402;48.082;11.628;2023-07-13T10:40:35;95620.47;;;22.24;75.06
72409;BME280;60402;48.082;11.628;2023-07-13T10:43:35;95623.13;;;22.44;72.07
72409;BME280;60402;48.082;11.628;2023-07-13T10:46:27;95615.84;;;22.60;71.53
72409;BME280;60402;48.082;11.628;2023-07-13T10:49:14;95614.31;;;22.87;72.69
72409;BME280;60402;48.082;11.628;2023-07-13T10:52:01;95613.53;;;23.09;68.30
72409;BME280;60402;48.082;11.628;2023-07-13T10:54:47;95616.88;;;23.46;67.22
72409;BME280;60402;48.082;11.628;2023-07-13T10:57:41;95618.44;;;23.47;67.43
72409;BME280;60402;48.082;11.628;2023-07-13T11:00:31;95620.25;;;23.56;66.10
72409;BME280;60402;48.082;11.628;2023-07-13T11:03:19;95611.38;;;23.37;68.39
72409;BME280;60402;48.082;11.628;2023-07-13T11:06:13;95628.41;;;23.69;67.31
72409;BME280;60402;48.082;11.628;2023-07-13T11:15:07;95623.19;;;23.45;64.68
72409;BME280;60402;48.082;11.628;2023-07-13T11:17:55;95620.53;;;23.69;62.26
72409;BME280;60402;48.082;11.628;2023-07-13T11:20:48;95632.84;;;23.81;57.26
72409;BME280;60402;48.082;11.628;2023-07-13T11:23:42;95625.50;;;23.63;60.29
72409;BME280;60402;48.082;11.628;2023-07-13T11:26:39;95623.94;;;23.62;64.20
72409;BME280;60402;48.082;11.628;2023-07-13T11:29:37;95619.47;;;23.56;63.44
72409;BME280;60402;48.082;11.628;2023-07-13T11:32:25;95620.53;;;23.69;63.83
72409;BME280;60402;48.082;11.628;2023-07-13T11:35:26;95614.22;;;23.77;62.28
72409;BME280;60402;48.082;11.628;2023-07-13T11:38:16;95615.03;;;23.66;61.36
72409;BME280;60402;48.082;11.628;2023-07-13T11:44:13;95604.78;;;23.76;54.01
72409;BME280;60402;48.082;11.628;2023-07-13T11:47:08;95604.81;;;23.65;54.10
72409;BME280;60402;48.082;11.628;2023-07-13T11:49:55;95599.03;;;23.54;51.98
72409;BME280;60402;48.082;11.628;2023-07-13T11:52:45;95595.34;;;23.59;49.78
72409;BME280;60402;48.082;11.628;2023-07-13T11:55:31;95593.34;;;23.09;53.69
72409;BME280;60402;48.082;11.628;2023-07-13T11:58:20;95599.09;;;23.31;53.37
72409;BME280;60402;48.082;11.628;2023-07-13T12:01:18;95592.53;;;23.19;52.85
72409;BME280;60402;48.082;11.628;2023-07-13T12:04:05;95597.53;;;23.08;51.60
72409;BME280;60402;48.082;11.628;2023-07-13T12:06:56;95586.78;;;23.19;52.93
72409;BME280;60402;48.082;11.628;2023-07-13T12:09:42;95571.84;;;23.21;53.12
72409;BME280;60402;48.082;11.628;2023-07-13T12:12:29;95584.16;;;23.21;56.06
72409;BME280;60402;48.082;11.628;2023-07-13T12:15:15;95591.75;;;23.19;52.50
72409;BME280;60402;48.082;11.628;2023-07-13T12:18:01;95590.69;;;23.39;52.39
72409;BME280;60402;48.082;11.628;2023-07-13T12:20:48;95580.47;;;23.32;53.62
72409;BME280;60402;48.082;11.628;2023-07-13T12:23:35;95574.91;;;23.62;53.03
72409;BME280;60402;48.082;11.628;2023-07-13T12:26:21;95576.16;;;23.84;53.75
72409;BME280;60402;48.082;11.628;2023-07-13T12:29:07;95579.06;;;23.61;50.87
72409;BME280;60402;48.082;11.628;2023-07-13T12:31:53;95572.38;;;22.80;49.93
72409;BME280;60402;48.082;11.628;2023-07-13T12:34:56;95566.38;;;22.78;50.90
72409;BME280;60402;48.082;11.628;2023-07-13T12:37:43;95572.31;;;23.53;53.37
72409;BME280;60402;48.082;11.628;2023-07-13T12:40:33;95568.41;;;24.14;53.79
72409;BME280;60402;48.082;11.628;2023-07-13T12:43:20;95573.53;;;24.33;53.01
72409;BME280;60402;48.082;11.628;2023-07-13T12:46:18;95577.72;;;24.43;51.79
72409;BME280;60402;48.082;11.628;2023-07-13T12:49:07;95549.16;;;24.22;51.04
72409;BME280;60402;48.082;11.628;2023-07-13T12:51:57;95551.63;;;24.54;49.85
72409;BME280;60402;48.082;11.628;2023-07-13T12:54:55;95552.13;;;24.11;50.69
72409;BME280;60402;48.082;11.628;2023-07-13T12:57:56;95552.31;;;24.25;51.75
72409;BME280;60402;48.082;11.628;2023-07-13T13:00:48;95558.88;;;24.25;52.85
72409;BME280;60402;48.082;11.628;2023-07-13T13:03:45;95556.50;;;24.29;51.74
72409;BME280;60402;48.082;11.628;2023-07-13T13:06:32;95555.28;;;24.55;50.52
72409;BME280;60402;48.082;11.628;2023-07-13T13:09:18;95554.63;;;24.32;53.21
72409;BME280;60402;48.082;11.628;2023-07-13T13:12:06;95537.84;;;24.30;53.47
72409;BME280;60402;48.082;11.628;2023-07-13T13:14:52;95541.50;;;24.72;51.43
72409;BME280;60402;48.082;11.628;2023-07-13T13:17:38;95541.78;;;24.68;51.97
72409;BME280;60402;48.082;11.628;2023-07-13T13:20:27;95533.13;;;24.68;52.59
72409;BME280;60402;48.082;11.628;2023-07-13T13:23:17;95538.34;;;24.76;50.44
72409;BME280;60402;48.082;11.628;2023-07-13T13:26:09;95530.38;;;24.82;51.77
72409;BME280;60402;48.082;11.628;2023-07-13T13:28:55;95539.44;;;24.97;48.66
72409;BME280;60402;48.082;11.628;2023-07-13T13:31:41;95546.84;;;24.92;49.38
72409;BME280;60402;48.082;11.628;2023-07-13T13:34:27;95547.50;;;25.10;49.20
72409;BME280;60402;48.082;11.628;2023-07-13T13:37:18;95546.75;;;25.04;49.57
72409;BME280;60402;48.082;11.628;2023-07-13T13:40:20;95548.00;;;25.14;48.81
72409;BME280;60402;48.082;11.628;2023-07-13T13:43:14;95547.16;;;25.43;48.15
72409;BME280;60402;48.082;11.628;2023-07-13T13:46:05;95536.94;;;24.82;47.78
72409;BME280;60402;48.082;11.628;2023-07-13T13:48:56;95535.78;;;24.96;48.40
72409;BME280;60402;48.082;11.628;2023-07-13T13:51:43;95548.84;;;25.09;49.19
72409;BME280;60402;48.082;11.628;2023-07-13T13:54:28;95554.94;;;24.99;48.72
72409;BME280;60402;48.082;11.628;2023-07-13T13:57:14;95553.38;;;24.98;50.11
72409;BME280;60402;48.082;11.628;2023-07-13T14:00:00;95546.94;;;24.81;50.03
72409;BME280;60402;48.082;11.628;2023-07-13T14:02:47;95549.13;;;24.69;49.39
72409;BME280;60402;48.082;11.628;2023-07-13T14:05:34;95538.72;;;24.91;50.49
72409;BME280;60402;48.082;11.628;2023-07-13T14:08:21;95548.50;;;24.82;49.78
72409;BME280;60402;48.082;11.628;2023-07-13T14:11:13;95543.56;;;24.77;48.59
72409;BME280;60402;48.082;11.628;2023-07-13T14:13:59;95545.19;;;24.72;48.85
72409;BME280;60402;48.082;11.628;2023-07-13T14:16:46;95552.13;;;24.88;48.04
72409;BME280;60402;48.082;11.628;2023-07-13T14:19:38;95542.53;;;24.74;49.01
72409;BME280;60402;48.082;11.628;2023-07-13T14:22:24;95560.66;;;24.75;47.40
72409;BME280;60402;48.082;11.628;2023-07-13T14:25:12;95556.28;;;24.63;48.09
72409;BME280;60402;48.082;11.628;2023-07-13T14:27:58;95552.94;;;24.53;48.23
72409;BME280;60402;48.082;11.628;2023-07-13T14:30:46;95551.53;;;24.65;48.41
72409;BME280;60402;48.082;11.628;2023-07-13T14:33:32;95546.41;;;24.83;48.35
72409;BME280;60402;48.082;11.628;2023-07-13T14:36:31;95553.22;;;24.50;49.71
72409;BME280;60402;48.082;11.628;2023-07-13T14:39:22;95542.56;;;24.28;51.89
72409;BME280;60402;48.082;11.628;2023-07-13T14:42:09;95553.63;;;24.29;50.95
72409;BME280;60402;48.082;11.628;2023-07-13T14:44:55;95548.66;;;24.24;52.27
72409;BME280;60402;48.082;11.628;2023-07-13T14:47:41;95553.00;;;24.47;50.79
72409;BME280;60402;48.082;11.628;2023-07-13T14:50:31;95558.56;;;24.34;51.10
72409;BME280;60402;48.082;11.628;2023-07-13T14:53:17;95543.97;;;24.15;52.40
72409;BME280;60402;48.082;11.628;2023-07-13T14:56:10;95553.66;;;24.18;50.84
72409;BME280;60402;48.082;11.628;2023-07-13T14:58:56;95547.56;;;24.33;48.18
72409;BME280;60402;48.082;11.628;2023-07-13T15:01:41;95542.84;;;24.30;48.55
72409;BME280;60402;48.082;11.628;2023-07-13T15:04:27;95544.13;;;24.40;48.50